Latest Weather Observations for Edinburgh

IDS60901

Issued at 2:21 pm CDT Sunday 4 December 2016 (issued every 10 minutes, with the page automatically refreshed every 10 minutes)

About weather observations | Map of Adelaide area stations | Latest observations for Adelaide area | Other Formats
Station Details ID: 023083 Name: EDINBURGH RAAF Lat: -34.71 Lon: 138.62 Height: 16.54 m
Data from the previous 72 hours. | See also: Recent months at Edinburgh
Date/Time
CDT
Temp
°C
App
Temp
°C
Dew
Point
°C
Rel
Hum
%
Delta-T
°C
Wind Press
QNH
hPa
Press
MSL
hPa
Rain since
9am
mm
Dir  Spd
km/h
Gust
km/h
Spd
kts
Gust
kts
04/02:00pm 24.3 24.2 20.0 77 2.8 NNE 20 28 11 15 1006.2 1006.2 3.8
04/01:30pm 23.0 23.0 20.1 84 1.9 NE 20 28 11 15 1006.6 1006.6 3.8
04/01:00pm 22.5 22.4 19.9 85 1.7 NE 20 24 11 13 1008.2 1008.2 3.6
04/12:30pm 22.4 23.5 19.6 84 1.8 NE 13 17 7 9 1008.7 1008.6 2.8
04/12:00pm 22.6 24.1 19.8 84 1.8 NNE 11 15 6 8 1009.1 1009.0 1.8
04/11:30am 22.2 22.7 19.2 83 1.9 NNE 15 19 8 10 1009.1 1009.0 1.2
04/11:00am 22.3 23.0 18.9 81 2.1 NNE 13 19 7 10 1009.5 1009.4 0.8
04/10:30am 22.0 22.8 19.0 83 1.9 NE 13 17 7 9 1009.7 1009.6 0.6
04/10:00am 21.6 22.1 18.4 82 2.0 NNE 13 17 7 9 1009.8 1009.7 0.6
04/09:30am 21.4 20.9 17.8 80 2.2 N 17 20 9 11 1010.2 1010.1 0.4
04/09:00am 21.7 17.9 17.3 76 2.7 NNW 33 44 18 24 1010.4 1010.3 0.2
04/08:52am 22.0 16.0 16.5 71 3.3 NW 43 57 23 31 1010.3 1010.2 0.0
04/08:30am 23.0 14.3 15.8 64 4.3 NNW 56 85 30 46 1009.4 1009.3 0.0
04/08:29am 23.3 14.9 15.6 62 4.6 NNW 54 85 29 46 1009.3 1009.2 0.0
04/08:16am 27.1 21.9 10.3 35 9.4 N 28 54 15 29 1008.3 1008.3 0.0
04/08:00am 25.7 21.2 8.7 34 9.2 NNE 22 30 12 16 1008.0 1008.0 0.0
04/07:30am 23.4 19.0 6.7 34 8.6 NE 19 24 10 13 1007.6 1007.6 0.0
04/07:00am 23.7 17.1 6.0 32 9.0 N 30 41 16 22 1007.8 1007.8 0.0
04/06:30am 23.3 19.0 7.0 35 8.5 N 19 24 10 13 1006.5 1006.5 0.0
04/06:00am 19.6 17.8 9.5 52 5.4 NE 9 11 5 6 1006.3 1006.3 0.0
04/05:30am 18.6 16.4 9.4 55 4.9 NE 11 15 6 8 1006.5 1006.5 0.0
04/05:00am 17.7 16.0 9.8 60 4.2 NNE 9 11 5 6 1006.6 1006.6 0.0
04/04:30am 17.3 16.5 9.7 61 4.0 NE 4 11 2 6 1006.7 1006.7 0.0
04/04:00am 18.0 17.9 9.4 57 4.5 CALM 0 6 0 3 1006.9 1006.9 0.0
04/03:30am 17.7 16.5 9.6 59 4.3 NE 6 7 3 4 1007.0 1007.0 0.0
04/03:00am 17.0 14.6 10.1 64 3.7 NNE 13 17 7 9 1007.3 1007.3 0.0
04/02:30am 17.6 16.7 10.7 64 3.7 NE 6 7 3 4 1008.2 1008.2 0.0
04/02:00am 18.0 16.5 10.6 62 4.0 NE 9 11 5 6 1008.8 1008.7 0.0
04/01:30am 18.5 18.9 11.3 63 3.9 CALM 0 2 0 1 1009.2 1009.1 0.0
04/01:00am 17.5 15.2 10.6 64 3.7 NNE 13 19 7 10 1009.4 1009.3 0.0
04/12:30am 18.6 18.0 10.4 59 4.4 SSW 4 6 2 3 1009.5 1009.4 0.0
04/12:00am 20.2 19.3 10.6 54 5.2 SSE 6 6 3 3 1009.2 1009.1 0.0
 
Date/Time
CDT
Temp
°C
App
Temp
°C
Dew
Point
°C
Rel
Hum
%
Delta-T
°C
Wind Press
QNH
hPa
Press
MSL
hPa
Rain since
9am
mm
Dir  Spd
km/h
Gust
km/h
Spd
kts
Gust
kts
03/11:30pm 18.8 17.8 10.9 60 4.3 NNE 7 9 4 5 1009.8 1009.7 0.0
03/11:00pm 19.1 17.4 9.9 55 4.9 N 9 11 5 6 1010.0 1009.9 0.0
03/10:30pm 21.1 20.4 8.7 45 6.5 SSW 2 9 1 5 1010.0 1009.9 0.0
03/10:00pm 22.8 20.9 9.2 42 7.3 S 9 13 5 7 1010.1 1010.0 0.0
03/09:30pm 22.1 20.9 9.6 45 6.7 SW 6 9 3 5 1010.6 1010.5 0.0
03/09:00pm 23.2 21.5 9.9 43 7.3 SSW 9 9 5 5 1010.8 1010.7 0.0
03/08:41pm 23.7 21.9 9.3 40 7.8 SSW 9 13 5 7 1010.7 1010.6 0.0
03/08:30pm 24.2 22.4 9.4 39 8.1 SSW 9 11 5 6 1010.8 1010.7 0.0
03/08:00pm 24.9 21.6 9.6 38 8.4 SW 17 20 9 11 1010.7 1010.6 0.0
03/07:30pm 26.4 23.0 9.3 34 9.4 WSW 17 19 9 10 1010.5 1010.4 0.0
03/07:00pm 28.9 25.9 7.5 26 11.5 WSW 13 17 7 9 1010.3 1010.2 0.0
03/06:30pm 29.7 27.3 7.0 24 12.2 SW 9 15 5 8 1010.0 1009.9 0.0
03/06:00pm 29.5 27.6 7.4 25 12.0 S 7 11 4 6 1009.9 1009.8 0.0
03/05:30pm 29.0 26.1 8.1 27 11.4 SSW 13 19 7 10 1010.0 1009.9 0.0
03/05:00pm 28.9 24.9 9.1 29 11.0 SW 20 26 11 14 1010.4 1010.3 0.0
03/04:30pm 29.5 25.0 8.5 27 11.6 SW 22 28 12 15 1010.6 1010.5 0.0
03/04:00pm 29.7 25.5 8.2 26 11.8 SW 20 26 11 14 1010.5 1010.4 0.0
03/03:30pm 29.7 25.5 8.2 26 11.8 SW 20 26 11 14 1010.5 1010.4 0.0
03/03:00pm 29.3 24.6 7.8 26 11.7 SW 22 30 12 16 1010.7 1010.6 0.0
03/02:30pm 29.7 24.6 9.3 28 11.4 WSW 26 33 14 18 1010.8 1010.7 0.0
03/02:00pm 31.0 27.0 6.8 22 13.1 SW 17 30 9 16 1010.6 1010.5 0.0
03/01:30pm 30.2 27.7 4.8 20 13.2 E 7 13 4 7 1011.0 1010.9 0.0
03/01:00pm 29.1 25.8 4.6 21 12.6 ENE 11 17 6 9 1011.3 1011.2 0.0
03/12:30pm 28.1 24.5 5.0 23 11.9 ENE 13 28 7 15 1011.5 1011.4 0.0
03/12:00pm 27.5 24.1 5.7 25 11.3 ENE 13 22 7 12 1012.1 1012.0 0.0
03/11:30am 26.3 22.6 4.7 25 10.9 ENE 13 26 7 14 1012.5 1012.4 0.0
03/11:00am 25.6 21.2 4.7 26 10.5 NE 17 28 9 15 1012.8 1012.7 0.0
03/10:30am 24.7 20.3 5.0 28 9.9 NE 17 24 9 13 1013.1 1013.0 0.0
03/10:00am 22.7 18.3 4.7 31 8.9 NE 17 26 9 14 1013.3 1013.2 0.0
03/09:30am 21.6 18.0 5.1 34 8.2 ENE 13 20 7 11 1013.7 1013.6 0.0
03/09:00am 20.1 17.7 5.4 38 7.2 ENE 7 19 4 10 1014.2 1014.1 0.0
03/08:30am 18.0 16.1 4.9 42 6.3 E 4 11 2 6 1014.1 1014.0 0.0
03/08:00am 16.2 15.2 5.8 50 5.0 CALM 0 0 0 0 1014.2 1014.1 0.0
03/07:30am 14.1 12.1 6.2 59 3.8 WSW 6 7 3 4 1014.2 1014.1 0.0
03/07:00am 11.9 10.0 6.8 71 2.4 WNW 6 7 3 4 1014.2 1014.1 0.0
03/06:30am 9.5 7.3 6.0 79 1.6 NW 7 7 4 4 1014.0 1013.9 0.0
03/06:00am 9.0 7.6 5.4 78 1.6 SW 2 6 1 3 1013.6 1013.5 0.0
03/05:30am 8.6 6.1 4.8 77 1.7 WSW 7 9 4 5 1013.9 1013.8 0.0
03/05:00am 9.0 6.5 5.0 76 1.8 NW 7 7 4 4 1013.7 1013.6 0.0
03/04:30am 9.7 7.3 5.3 74 2.0 NW 7 7 4 4 1013.3 1013.2 0.0
03/04:00am 10.6 7.9 5.8 72 2.2 WSW 9 11 5 6 1013.2 1013.1 0.0
03/03:30am 9.9 7.7 6.3 78 1.7 WNW 7 9 4 5 1013.2 1013.1 0.0
03/03:00am 10.1 9.3 6.6 79 1.6 CALM 0 0 0 0 1013.3 1013.2 0.0
03/02:30am 11.0 8.5 6.7 75 2.0 W 9 11 5 6 1013.4 1013.3 0.0
03/02:00am 10.8 8.1 5.8 71 2.3 NNW 9 9 5 5 1013.4 1013.3 0.0
03/01:30am 13.8 11.8 6.9 63 3.3 SE 7 9 4 5 1013.7 1013.6 0.0
03/01:00am 13.7 11.7 7.0 64 3.3 SSE 7 9 4 5 1014.0 1013.9 0.0
03/12:30am 14.0 12.4 7.8 66 3.1 SSE 6 9 3 5 1014.4 1014.3 0.0
03/12:00am 14.2 12.5 7.5 64 3.3 SE 6 9 3 5 1014.5 1014.4 0.0
 
Date/Time
CDT
Temp
°C
App
Temp
°C
Dew
Point
°C
Rel
Hum
%
Delta-T
°C
Wind Press
QNH
hPa
Press
MSL
hPa
Rain since
9am
mm
Dir  Spd
km/h
Gust
km/h
Spd
kts
Gust
kts
02/11:30pm 14.5 12.3 7.8 64 3.3 SSE 9 13 5 7 1014.7 1014.6 0.0
02/11:00pm 15.0 12.8 8.0 63 3.5 SSE 9 13 5 7 1014.9 1014.8 0.0
02/10:30pm 15.5 12.6 8.0 61 3.8 SE 13 17 7 9 1014.9 1014.8 0.0
02/10:00pm 16.0 13.1 8.2 60 3.9 SE 13 19 7 10 1014.8 1014.7 0.0
02/09:30pm 16.4 13.1 8.1 58 4.2 SE 15 24 8 13 1014.3 1014.2 0.0
02/09:00pm 17.2 13.9 8.1 55 4.6 SE 15 22 8 12 1014.3 1014.2 0.0
02/08:30pm 17.9 15.0 8.2 53 5.0 SE 13 20 7 11 1014.2 1014.1 0.0
02/08:00pm 18.8 14.9 8.5 51 5.3 ESE 19 26 10 14 1013.8 1013.7 0.0
02/07:30pm 20.1 16.2 8.8 48 5.9 ESE 19 28 10 15 1013.4 1013.3 0.0
02/07:00pm 21.2 17.1 8.5 44 6.7 ESE 20 32 11 17 1012.9 1012.8 0.0
02/06:30pm 22.6 19.7 9.7 44 7.0 SSE 15 26 8 14 1012.6 1012.5 0.0
02/06:00pm 21.9 17.1 10.4 48 6.3 SW 26 33 14 18 1012.3 1012.2 0.0
02/05:30pm 22.1 17.8 10.9 49 6.2 SW 24 30 13 16 1012.4 1012.3 0.0
02/05:00pm 22.0 17.3 10.5 48 6.3 SW 26 33 14 18 1012.8 1012.7 0.0
02/04:30pm 22.4 17.3 10.5 47 6.5 SW 28 35 15 19 1012.8 1012.7 0.0
02/04:00pm 22.2 16.9 10.0 46 6.6 SW 28 35 15 19 1012.8 1012.7 0.0
02/03:30pm 21.6 16.5 10.7 50 6.0 SW 28 37 15 20 1013.0 1012.9 0.0
02/03:00pm 21.2 15.6 10.1 49 6.0 SW 30 37 16 20 1013.1 1013.0 0.0
02/02:30pm 21.6 16.0 10.1 48 6.2 SW 30 37 16 20 1013.2 1013.1 0.0
02/02:00pm 22.3 16.7 11.4 50 6.1 SW 32 39 17 21 1013.4 1013.3 0.0
02/01:30pm 22.3 17.6 10.8 48 6.3 SW 26 35 14 19 1013.5 1013.4 0.0
02/01:00pm 21.2 15.6 10.1 49 6.0 SW 30 37 16 20 1013.7 1013.6 0.0
02/12:30pm 21.7 17.3 11.7 53 5.6 SW 26 35 14 19 1013.9 1013.8 0.0
02/12:00pm 21.7 18.8 11.1 51 5.9 WSW 17 30 9 16 1013.9 1013.8 0.0
02/11:30am 20.8 17.9 10.9 53 5.4 WSW 17 24 9 13 1013.9 1013.8 0.0
02/11:00am 20.6 17.6 9.2 48 6.0 S 15 22 8 12 1014.1 1014.0 0.0
02/10:30am 19.5 17.2 9.1 51 5.5 S 11 19 6 10 1014.3 1014.2 0.0
02/10:00am 19.8 18.1 10.0 53 5.3 SSE 9 17 5 9 1014.3 1014.2 0.0
02/09:30am 18.3 15.0 9.4 56 4.7 S 17 22 9 12 1014.3 1014.2 0.0
02/09:00am 18.2 16.1 9.8 58 4.4 SSE 11 19 6 10 1014.3 1014.2 0.0
02/08:30am 17.0 14.8 9.4 61 4.0 SSE 11 17 6 9 1014.1 1014.0 0.0
02/08:00am 16.5 14.1 9.9 65 3.5 S 13 17 7 9 1013.8 1013.7 0.0
02/07:30am 15.3 12.9 9.9 70 2.8 SSE 13 19 7 10 1013.3 1013.2 0.0
02/07:00am 13.8 13.6 10.4 80 1.8 SSE 2 7 1 4 1012.9 1012.8 0.0
02/06:30am 11.2 11.0 8.9 86 1.1 CALM 0 0 0 0 1012.8 1012.7 0.0
02/06:00am 10.8 10.3 8.0 83 1.4 CALM 0 0 0 0 1012.3 1012.2 0.0
02/05:30am 12.2 11.5 8.5 78 1.8 E 2 6 1 3 1012.0 1011.9 0.0
02/05:00am 13.0 11.7 9.3 78 1.9 E 6 9 3 5 1011.8 1011.7 0.0
02/04:30am 12.8 11.7 9.8 82 1.5 E 6 7 3 4 1011.4 1011.3 0.0
02/04:00am 12.1 11.6 9.5 84 1.3 NE 2 6 1 3 1011.1 1011.0 0.0
02/03:30am 11.6 10.9 8.5 81 1.5 WSW 2 6 1 3 1010.8 1010.7 0.0
02/03:00am 12.4 11.1 9.1 80 1.7 WSW 6 7 3 4 1010.4 1010.3 0.0
02/02:30am 13.8 13.3 9.5 75 2.2 SE 2 6 1 3 1010.0 1009.9 0.0
02/02:00am 14.3 13.1 10.3 77 2.1 SSW 7 9 4 5 1009.7 1009.6 0.0
02/01:30am 13.8 12.0 9.6 76 2.2 SW 9 13 5 7 1009.7 1009.6 0.0
02/01:00am 15.6 14.6 10.2 70 2.8 SSE 6 7 3 4 1009.6 1009.5 0.0
02/12:30am 15.8 14.7 10.6 71 2.8 S 7 7 4 4 1009.8 1009.7 0.0
02/12:00am 15.9 15.1 10.9 72 2.7 SSE 6 9 3 5 1009.8 1009.7 0.0
 
Date/Time
CDT
Temp
°C
App
Temp
°C
Dew
Point
°C
Rel
Hum
%
Delta-T
°C
Wind Press
QNH
hPa
Press
MSL
hPa
Rain since
9am
mm
Dir  Spd
km/h
Gust
km/h
Spd
kts
Gust
kts
01/11:30pm 15.7 14.6 10.7 72 2.7 SSW 7 11 4 6 1009.9 1009.8 0.0
01/11:00pm 15.3 13.4 9.2 67 3.1 SW 9 9 5 5 1009.7 1009.6 0.0
01/10:30pm 15.2 13.5 8.4 64 3.4 WSW 7 9 4 5 1009.4 1009.3 0.0
01/10:00pm 16.9 15.5 8.8 59 4.2 SW 6 7 3 4 1009.4 1009.3 0.0
01/09:30pm 17.7 16.2 9.1 57 4.5 S 7 9 4 5 1009.3 1009.2 0.0
01/09:00pm 18.0 15.6 8.8 55 4.8 S 11 15 6 8 1009.2 1009.1 0.0
01/08:30pm 18.5 14.9 8.5 52 5.2 SSW 17 24 9 13 1009.3 1009.2 0.0
01/08:00pm 18.9 14.8 10.2 57 4.7 SSW 22 30 12 16 1009.1 1009.0 0.0
01/07:30pm 19.3 15.1 9.8 54 5.1 SSW 22 28 12 15 1009.1 1009.0 0.0
01/07:00pm 20.0 16.1 9.3 50 5.7 SSW 20 24 11 13 1008.8 1008.7 0.0
01/06:30pm 20.3 15.6 9.2 49 5.9 SW 24 33 13 18 1008.4 1008.4 0.0
01/06:00pm 20.6 15.9 9.2 48 6.1 SW 24 30 13 16 1008.0 1008.0 0.0
01/05:30pm 22.8 16.3 4.8 31 8.9 WSW 28 35 15 19 1007.6 1007.6 0.0
01/05:00pm 24.2 18.7 4.0 27 10.0 WSW 22 30 12 16 1007.5 1007.5 0.0
01/04:30pm 24.6 20.6 2.7 24 10.6 WSW 13 22 7 12 1007.7 1007.7 0.0
01/04:00pm 23.4 20.4 1.1 23 10.3 S 6 9 3 5 1007.6 1007.6 0.0
01/03:30pm 22.6 19.7 4.6 31 8.9 SSW 9 13 5 7 1007.9 1007.9 0.0
01/03:00pm 21.2 19.0 7.8 42 7.0 SSW 9 15 5 8 1008.0 1008.0 0.0
01/02:30pm 20.9 17.6 9.5 48 6.1 WSW 17 20 9 11 1008.8 1008.7 0.0

Latest Capital City Observations: Canberra | Sydney | Melbourne | Brisbane | Adelaide | Perth | Hobart | Darwin

Other Formats:

Comma delimited format used in spreadsheet applications
http://www.bom.gov.au/fwo/IDS60901/IDS60901.95676.axf

JavaScript Object Notation format (JSON) in row-major order
http://www.bom.gov.au/fwo/IDS60901/IDS60901.95676.json